Irving South's Hourly Summary for Saturday, April 15, 2017
Hour Temp
(f)
RH
(%)
Solar Rad.
(MJ/m2)
Rainfall
(in)
Wind
(mph)
4/15/2017 12:00 AM 69 59 0 0 0.41
4/15/2017 1:00 AM 69 59 0 0 2.12
4/15/2017 2:00 AM 69 63 0 0 2.23
4/15/2017 3:00 AM 68 66 0 0 1.74
4/15/2017 4:00 AM 66 72 0 0 1.55
4/15/2017 5:00 AM 65 76 0 0 0.71
4/15/2017 6:00 AM 66 76 0 0 3.09
4/15/2017 7:00 AM 65 78 0 0 0.64
4/15/2017 8:00 AM 64 81 0.08 0 0.32
4/15/2017 9:00 AM 67 69 0.71 0 2.13
4/15/2017 10:00 AM 70 62 1.56 0 4.29
4/15/2017 11:00 AM 73 58 1.77 0 4.08
4/15/2017 12:00 PM 74 54 2.5 0 5.17
4/15/2017 1:00 PM 76 49 2.83 0 4.78
4/15/2017 2:00 PM 77 48 1.98 0 5.56
4/15/2017 3:00 PM 78 46 1.83 0 4
4/15/2017 4:00 PM 78 45 1.76 0 4
4/15/2017 5:00 PM 78 47 0.91 0 2.56
4/15/2017 6:00 PM 78 47 0.92 0 3.23
4/15/2017 7:00 PM 79 47 0.7 0 2.04
4/15/2017 8:00 PM 76 51 0.15 0 1.31
4/15/2017 9:00 PM 73 55 0 0 0.43
4/15/2017 10:00 PM 71 60 0 0 0.11
4/15/2017 11:00 PM 70 64 0 0 0.32
Data Summary 71 59 17.70 0.00 2.37